createdAt,value
2024-02-02T00:00:17.184Z,598.00
2024-02-02T00:01:17.234Z,599.00
2024-02-02T00:02:17.275Z,599.00
2024-02-02T00:03:17.697Z,601.00
2024-02-02T00:04:17.413Z,601.00
2024-02-02T00:05:18.008Z,599.00
2024-02-02T00:06:17.663Z,601.00
2024-02-02T00:07:17.633Z,601.00
2024-02-02T00:08:17.656Z,603.00
2024-02-02T00:09:17.775Z,604.00
2024-02-02T00:10:17.808Z,604.00
2024-02-02T00:11:17.858Z,605.00
2024-02-02T00:12:17.943Z,606.00
2024-02-02T00:13:17.968Z,605.00
2024-02-02T00:14:18.041Z,606.00
2024-02-02T00:15:18.172Z,607.00
2024-02-02T00:16:18.188Z,606.00
2024-02-02T00:17:18.282Z,607.00
2024-02-02T00:18:18.681Z,607.00
2024-02-02T00:19:18.517Z,605.00
2024-02-02T00:20:18.512Z,603.00
2024-02-02T00:21:18.513Z,604.00
2024-02-02T00:22:18.630Z,604.00
2024-02-02T00:23:18.657Z,604.00
2024-02-02T00:24:18.675Z,604.00
2024-02-02T00:25:18.692Z,604.00
2024-02-02T00:26:18.747Z,604.00
2024-02-02T00:27:18.883Z,605.00
2024-02-02T00:28:18.841Z,604.00
2024-02-02T00:29:18.875Z,605.00
2024-02-02T00:30:19.116Z,604.00
2024-02-02T00:31:18.930Z,604.00
2024-02-02T00:32:18.953Z,602.00
2024-02-02T00:33:19.159Z,602.00
2024-02-02T00:34:19.135Z,602.00
2024-02-02T00:35:19.059Z,602.00
2024-02-02T00:36:19.144Z,602.00
2024-02-02T00:37:19.090Z,600.00
2024-02-02T00:38:19.147Z,598.00
2024-02-02T00:39:19.167Z,600.00
2024-02-02T00:40:21.087Z,599.00
2024-02-02T00:41:19.196Z,599.00
2024-02-02T00:42:19.230Z,601.00
2024-02-02T00:43:20.031Z,601.00
2024-02-02T00:44:19.239Z,602.00
2024-02-02T00:45:19.413Z,602.00
2024-02-02T00:46:19.296Z,602.00
2024-02-02T00:47:19.300Z,601.00
2024-02-02T00:48:19.536Z,601.00
2024-02-02T00:49:19.391Z,599.00
2024-02-02T00:50:19.343Z,599.00
2024-02-02T00:51:19.341Z,598.00
2024-02-02T00:52:19.342Z,599.00
2024-02-02T00:53:19.364Z,600.00
2024-02-02T00:54:19.365Z,600.00
2024-02-02T00:55:19.393Z,598.00
2024-02-02T00:56:19.443Z,600.00
2024-02-02T00:57:19.493Z,601.00
2024-02-02T00:58:19.384Z,604.00
2024-02-02T00:59:19.410Z,602.00
2024-02-02T01:00:19.474Z,601.00
2024-02-02T01:01:19.493Z,601.00
2024-02-02T01:02:19.420Z,601.00
2024-02-02T01:03:19.571Z,604.00
2024-02-02T01:04:19.480Z,601.00
2024-02-02T01:05:19.427Z,601.00
2024-02-02T01:06:19.597Z,601.00
2024-02-02T01:07:19.452Z,603.00
2024-02-02T01:08:19.458Z,603.00
2024-02-02T01:09:19.483Z,600.00
2024-02-02T01:10:19.409Z,599.00
2024-02-02T01:11:19.437Z,598.00
2024-02-02T01:12:19.473Z,598.00
2024-02-02T01:13:19.429Z,597.00
2024-02-02T01:14:19.442Z,596.00
2024-02-02T01:15:19.437Z,594.00
2024-02-02T01:16:19.431Z,597.00
2024-02-02T01:17:19.419Z,597.00
2024-02-02T01:18:19.520Z,599.00
2024-02-02T01:19:19.641Z,601.00
2024-02-02T01:20:19.385Z,601.00
2024-02-02T01:21:19.446Z,600.00
2024-02-02T01:22:19.385Z,600.00
2024-02-02T01:23:19.358Z,599.00
2024-02-02T01:24:19.534Z,599.00
2024-02-02T01:25:19.380Z,600.00
2024-02-02T01:26:19.387Z,598.00
2024-02-02T01:27:19.462Z,600.00
2024-02-02T01:28:19.353Z,600.00
2024-02-02T01:29:19.436Z,598.00
2024-02-02T01:30:19.381Z,600.00
2024-02-02T01:31:19.328Z,600.00
2024-02-02T01:32:19.408Z,600.00
2024-02-02T01:33:19.411Z,601.00
2024-02-02T01:34:19.436Z,600.00
2024-02-02T01:35:19.304Z,599.00
2024-02-02T01:36:19.386Z,600.00
2024-02-02T01:37:19.318Z,601.00
2024-02-02T01:38:19.271Z,599.00
2024-02-02T01:39:19.335Z,599.00
2024-02-02T01:40:19.263Z,599.00
2024-02-02T01:41:19.264Z,597.00
2024-02-02T01:42:19.252Z,597.00
2024-02-02T01:43:19.223Z,596.00
2024-02-02T01:44:19.221Z,596.00
2024-02-02T01:45:19.370Z,598.00
2024-02-02T01:46:19.181Z,599.00
2024-02-02T01:47:19.195Z,597.00
2024-02-02T01:48:19.444Z,599.00
2024-02-02T01:49:19.337Z,595.00
2024-02-02T01:50:19.202Z,595.00
2024-02-02T01:51:19.247Z,596.00
2024-02-02T01:52:19.237Z,597.00
2024-02-02T01:53:19.252Z,598.00
2024-02-02T01:54:19.336Z,598.00
2024-02-02T01:55:19.305Z,599.00
2024-02-02T01:56:19.343Z,600.00
2024-02-02T01:57:19.394Z,600.00
2024-02-02T01:58:19.397Z,599.00
2024-02-02T01:59:19.431Z,597.00
2024-02-02T02:00:19.493Z,595.00
2024-02-02T02:01:19.579Z,594.00
2024-02-02T02:02:19.535Z,594.00
2024-02-02T02:03:19.640Z,593.00
2024-02-02T02:04:19.698Z,595.00
2024-02-02T02:05:19.752Z,595.00
2024-02-02T02:06:19.757Z,596.00
2024-02-02T02:07:19.767Z,598.00
2024-02-02T02:08:19.893Z,596.00
2024-02-02T02:09:19.967Z,595.00
2024-02-02T02:10:19.988Z,595.00
2024-02-02T02:11:20.086Z,598.00
2024-02-02T02:12:20.178Z,598.00
2024-02-02T02:13:20.144Z,596.00
2024-02-02T02:14:20.193Z,595.00
2024-02-02T02:15:20.341Z,594.00
2024-02-02T02:16:20.313Z,596.00
2024-02-02T02:17:20.348Z,597.00
2024-02-02T02:18:20.493Z,596.00
2024-02-02T02:19:20.597Z,598.00
2024-02-02T02:20:20.548Z,595.00
2024-02-02T02:21:20.595Z,597.00
2024-02-02T02:22:20.650Z,597.00
2024-02-02T02:23:20.698Z,598.00
2024-02-02T02:24:20.832Z,596.00
2024-02-02T02:25:20.782Z,596.00
2024-02-02T02:26:20.849Z,594.00
2024-02-02T02:27:20.957Z,594.00
2024-02-02T02:28:20.936Z,593.00
2024-02-02T02:29:21.009Z,593.00
2024-02-02T02:30:21.084Z,592.00
2024-02-02T02:31:21.107Z,592.00
2024-02-02T02:32:21.212Z,594.00
2024-02-02T02:33:21.401Z,593.00
2024-02-02T02:34:21.387Z,592.00
2024-02-02T02:35:21.347Z,593.00
2024-02-02T02:36:21.408Z,594.00
2024-02-02T02:37:21.402Z,594.00
2024-02-02T02:38:21.486Z,596.00
2024-02-02T02:39:21.568Z,598.00
2024-02-02T02:40:21.596Z,596.00
2024-02-02T02:41:21.597Z,597.00
2024-02-02T02:42:21.719Z,595.00
2024-02-02T02:43:21.716Z,597.00
2024-02-02T02:44:21.797Z,596.00
2024-02-02T02:45:21.825Z,595.00
2024-02-02T02:46:22.551Z,592.00
2024-02-02T02:47:21.955Z,594.00
2024-02-02T02:48:22.122Z,594.00
2024-02-02T02:49:22.338Z,595.00
2024-02-02T02:50:22.094Z,596.00
2024-02-02T02:51:22.225Z,595.00
2024-02-02T02:52:22.238Z,593.00
2024-02-02T02:53:22.299Z,593.00
2024-02-02T02:54:22.409Z,594.00
2024-02-02T02:55:22.385Z,593.00
2024-02-02T02:56:22.435Z,590.00
2024-02-02T02:57:22.568Z,590.00
2024-02-02T02:58:22.534Z,591.00
2024-02-02T02:59:22.658Z,593.00
2024-02-02T03:00:22.762Z,594.00
2024-02-02T03:01:22.805Z,595.00
2024-02-02T03:02:22.781Z,593.00
2024-02-02T03:03:22.878Z,594.00
2024-02-02T03:04:22.896Z,594.00
2024-02-02T03:05:22.908Z,595.00
2024-02-02T03:06:23.084Z,594.00
2024-02-02T03:07:23.214Z,593.00
2024-02-02T03:08:23.075Z,594.00
2024-02-02T03:09:23.198Z,592.00
2024-02-02T03:10:23.193Z,591.00
2024-02-02T03:11:23.246Z,593.00
2024-02-02T03:12:23.325Z,594.00
2024-02-02T03:13:23.341Z,597.00
2024-02-02T03:14:23.392Z,598.00
2024-02-02T03:15:23.465Z,599.00
2024-02-02T03:16:23.489Z,598.00
2024-02-02T03:17:23.541Z,599.00
2024-02-02T03:18:23.816Z,598.00
2024-02-02T03:19:23.735Z,597.00
2024-02-02T03:20:23.702Z,595.00
2024-02-02T03:21:23.805Z,592.00
2024-02-02T03:22:23.799Z,591.00
2024-02-02T03:23:23.862Z,590.00
2024-02-02T03:24:23.983Z,592.00
2024-02-02T03:25:23.963Z,592.00
2024-02-02T03:26:24.029Z,591.00
2024-02-02T03:27:24.160Z,592.00
2024-02-02T03:28:24.125Z,590.00
2024-02-02T03:29:24.152Z,590.00
2024-02-02T03:30:24.212Z,589.00
2024-02-02T03:31:24.244Z,589.00
2024-02-02T03:32:24.315Z,589.00
2024-02-02T03:33:24.460Z,591.00
2024-02-02T03:34:24.502Z,592.00
2024-02-02T03:35:24.444Z,592.00
2024-02-02T03:36:24.540Z,591.00
2024-02-02T03:37:24.521Z,590.00
2024-02-02T03:38:24.579Z,592.00
2024-02-02T03:39:24.668Z,592.00
2024-02-02T03:40:24.720Z,592.00
2024-02-02T03:41:24.769Z,592.00
2024-02-02T03:42:24.833Z,592.00
2024-02-02T03:43:24.846Z,593.00
2024-02-02T03:44:24.880Z,593.00
2024-02-02T03:45:25.002Z,592.00
2024-02-02T03:46:24.956Z,590.00
2024-02-02T03:47:24.997Z,590.00
2024-02-02T03:48:25.160Z,589.00
2024-02-02T03:49:25.088Z,589.00
2024-02-02T03:50:25.113Z,588.00
2024-02-02T03:51:25.231Z,588.00
2024-02-02T03:52:25.343Z,589.00
2024-02-02T03:53:25.252Z,588.00
2024-02-02T03:54:25.377Z,588.00
2024-02-02T03:55:25.339Z,587.00
2024-02-02T03:56:25.395Z,588.00
2024-02-02T03:57:25.502Z,589.00
2024-02-02T03:58:25.463Z,592.00
2024-02-02T03:59:25.539Z,591.00
2024-02-02T04:00:25.584Z,590.00
2024-02-02T04:01:25.688Z,589.00
2024-02-02T04:02:25.651Z,591.00
2024-02-02T04:03:25.796Z,593.00
2024-02-02T04:04:25.844Z,595.00
2024-02-02T04:05:25.848Z,597.00
2024-02-02T04:06:25.866Z,595.00
2024-02-02T04:07:25.899Z,593.00
2024-02-02T04:08:25.918Z,591.00
2024-02-02T04:09:25.990Z,593.00
2024-02-02T04:10:26.013Z,595.00
2024-02-02T04:11:26.055Z,594.00
2024-02-02T04:12:26.255Z,594.00
2024-02-02T04:13:26.148Z,594.00
2024-02-02T04:14:26.187Z,594.00
2024-02-02T04:15:27.365Z,594.00
2024-02-02T04:16:26.300Z,596.00
2024-02-02T04:17:26.339Z,600.00
2024-02-02T04:18:26.456Z,600.00
2024-02-02T04:19:26.457Z,600.00
2024-02-02T04:20:26.482Z,602.00
2024-02-02T04:21:26.556Z,600.00
2024-02-02T04:22:26.586Z,601.00
2024-02-02T04:23:26.628Z,600.00
2024-02-02T04:24:26.687Z,599.00
2024-02-02T04:25:26.710Z,597.00
2024-02-02T04:26:26.766Z,598.00
2024-02-02T04:27:26.872Z,598.00
2024-02-02T04:28:26.866Z,597.00
2024-02-02T04:29:26.901Z,597.00
2024-02-02T04:30:34.290Z,594.00
2024-02-02T04:31:41.483Z,584.00
2024-02-02T04:32:41.696Z,586.00
2024-02-02T04:33:41.548Z,588.00
2024-02-02T04:34:41.652Z,588.00
2024-02-02T04:35:41.483Z,587.00
2024-02-02T04:36:41.497Z,586.00
2024-02-02T04:37:41.450Z,588.00
2024-02-02T04:38:41.422Z,589.00
2024-02-02T04:39:41.429Z,590.00
2024-02-02T04:40:41.388Z,591.00
2024-02-02T04:41:41.390Z,594.00
2024-02-02T04:42:41.399Z,595.00
2024-02-02T04:43:41.409Z,596.00
2024-02-02T04:44:41.358Z,596.00
2024-02-02T04:45:41.370Z,597.00
2024-02-02T04:46:41.351Z,598.00
2024-02-02T04:47:41.346Z,596.00
2024-02-02T04:48:41.408Z,596.00
2024-02-02T04:49:41.401Z,595.00
2024-02-02T04:50:41.277Z,596.00
2024-02-02T04:51:41.315Z,595.00
2024-02-02T04:52:41.330Z,596.00
2024-02-02T04:53:41.350Z,596.00
2024-02-02T04:54:41.396Z,594.00
2024-02-02T04:55:41.434Z,593.00
2024-02-02T04:56:41.570Z,591.00
2024-02-02T04:57:41.526Z,592.00
2024-02-02T04:58:41.561Z,592.00
2024-02-02T04:59:41.642Z,591.00
2024-02-02T05:00:41.722Z,591.00
2024-02-02T05:01:41.788Z,589.00
2024-02-02T05:02:41.759Z,590.00
2024-02-02T05:03:41.890Z,591.00
2024-02-02T05:04:41.922Z,592.00
2024-02-02T05:05:41.928Z,594.00
2024-02-02T05:06:41.972Z,591.00
2024-02-02T05:07:42.044Z,590.00
2024-02-02T05:08:42.042Z,590.00
2024-02-02T05:09:42.084Z,589.00
2024-02-02T05:10:42.098Z,588.00
2024-02-02T05:11:42.130Z,587.00
2024-02-02T05:12:42.289Z,586.00
2024-02-02T05:13:42.250Z,586.00
2024-02-02T05:14:42.322Z,585.00
2024-02-02T05:15:42.462Z,583.00
2024-02-02T05:16:42.438Z,582.00
2024-02-02T05:17:42.561Z,582.00
2024-02-02T05:18:42.649Z,582.00
2024-02-02T05:19:42.624Z,582.00
2024-02-02T05:20:42.680Z,582.00
2024-02-02T05:21:42.738Z,582.00
2024-02-02T05:22:42.827Z,582.00
2024-02-02T05:23:48.916Z,581.00
2024-02-02T05:24:45.924Z,584.00
2024-02-02T05:25:42.898Z,585.00
2024-02-02T05:26:42.813Z,585.00
2024-02-02T05:27:42.920Z,586.00
2024-02-02T05:28:42.822Z,586.00
2024-02-02T05:29:42.775Z,585.00
2024-02-02T05:30:42.832Z,584.00
2024-02-02T05:31:42.761Z,584.00
2024-02-02T05:32:42.784Z,583.00
2024-02-02T05:33:44.608Z,584.00
2024-02-02T05:34:42.818Z,582.00
2024-02-02T05:35:42.723Z,583.00
2024-02-02T05:36:42.725Z,585.00
2024-02-02T05:37:42.691Z,584.00
2024-02-02T05:38:42.708Z,585.00
2024-02-02T05:39:42.734Z,584.00
2024-02-02T05:40:42.646Z,582.00
2024-02-02T05:41:42.647Z,582.00
2024-02-02T05:42:42.700Z,582.00
2024-02-02T05:43:42.634Z,583.00
2024-02-02T05:44:42.636Z,584.00
2024-02-02T05:45:42.654Z,582.00
2024-02-02T05:46:42.593Z,580.00
2024-02-02T05:47:42.659Z,576.00
2024-02-02T05:48:42.693Z,577.00
2024-02-02T05:49:42.624Z,578.00
2024-02-02T05:50:42.605Z,579.00
2024-02-02T05:51:42.626Z,581.00
2024-02-02T05:52:42.573Z,582.00
2024-02-02T05:53:42.547Z,581.00
2024-02-02T05:54:42.580Z,579.00
2024-02-02T05:55:43.957Z,579.00
2024-02-02T05:56:42.699Z,577.00
2024-02-02T05:57:42.684Z,576.00
2024-02-02T05:58:42.779Z,576.00
2024-02-02T05:59:42.843Z,576.00
2024-02-02T06:00:42.990Z,578.00
2024-02-02T06:02:05.484Z,578.00
2024-02-02T06:02:42.879Z,580.00
2024-02-02T06:03:43.073Z,579.00
2024-02-02T06:04:42.991Z,578.00
2024-02-02T06:05:42.954Z,578.00
2024-02-02T06:06:42.938Z,577.00
2024-02-02T06:07:42.888Z,577.00
2024-02-02T06:08:42.861Z,578.00
2024-02-02T06:09:42.940Z,580.00
2024-02-02T06:10:42.829Z,579.00
2024-02-02T06:11:42.840Z,579.00
2024-02-02T06:12:42.943Z,579.00
2024-02-02T06:13:42.872Z,579.00
2024-02-02T06:14:42.852Z,582.00
2024-02-02T06:15:42.856Z,582.00
2024-02-02T06:16:42.790Z,585.00
2024-02-02T06:17:42.844Z,584.00
2024-02-02T06:18:42.846Z,584.00
2024-02-02T06:19:42.871Z,580.00
2024-02-02T06:20:42.821Z,581.00
2024-02-02T06:21:42.844Z,581.00
2024-02-02T06:22:42.874Z,580.00
2024-02-02T06:23:42.893Z,579.00
2024-02-02T06:24:43.012Z,580.00
2024-02-02T06:25:42.976Z,578.00
2024-02-02T06:26:43.036Z,578.00
2024-02-02T06:27:43.133Z,580.00
2024-02-02T06:28:43.120Z,580.00
2024-02-02T06:29:43.177Z,580.00
2024-02-02T06:30:43.350Z,580.00
2024-02-02T06:31:43.338Z,580.00
2024-02-02T06:32:43.408Z,602.00
2024-02-02T06:33:43.469Z,627.00
2024-02-02T06:34:43.754Z,639.00
2024-02-02T06:35:43.485Z,638.00
2024-02-02T06:36:43.527Z,641.00
2024-02-02T06:37:43.625Z,684.00
2024-02-02T06:38:43.522Z,650.00
2024-02-02T06:39:43.662Z,859.00
2024-02-02T06:40:43.662Z,705.00
2024-02-02T06:41:43.711Z,719.00
2024-02-02T06:42:43.776Z,735.00
2024-02-02T06:43:43.840Z,744.00
2024-02-02T06:44:44.259Z,749.00
2024-02-02T06:46:06.490Z,847.00
2024-02-02T06:46:43.948Z,846.00
2024-02-02T06:47:43.990Z,857.00
2024-02-02T06:48:44.065Z,849.00
2024-02-02T06:49:44.232Z,921.00
2024-02-02T06:50:43.965Z,984.00
2024-02-02T06:51:44.126Z,1040.00
2024-02-02T06:52:43.979Z,1041.00
2024-02-02T06:53:43.972Z,921.00
2024-02-02T06:54:44.772Z,934.00
2024-02-02T06:55:44.014Z,824.00
2024-02-02T06:56:44.130Z,800.00
2024-02-02T06:57:44.107Z,790.00
2024-02-02T06:58:44.079Z,787.00
2024-02-02T06:59:44.048Z,803.00
2024-02-02T07:00:44.171Z,829.00
2024-02-02T07:01:44.129Z,849.00
2024-02-02T07:02:44.150Z,864.00
2024-02-02T07:03:44.305Z,919.00
2024-02-02T07:04:44.170Z,967.00
2024-02-02T07:05:44.215Z,982.00
2024-02-02T07:06:44.317Z,994.00
2024-02-02T07:07:44.253Z,1009.00
2024-02-02T07:08:44.197Z,1028.00
2024-02-02T07:09:44.298Z,1062.00
2024-02-02T07:10:44.310Z,1086.00
2024-02-02T07:11:44.343Z,1118.00
2024-02-02T07:12:44.399Z,1156.00
2024-02-02T07:13:44.353Z,1208.00
2024-02-02T07:14:44.366Z,1215.00
2024-02-02T07:15:44.425Z,1219.00
2024-02-02T07:16:44.444Z,1230.00
2024-02-02T07:17:44.496Z,1245.00
2024-02-02T07:18:45.291Z,1259.00
2024-02-02T07:19:44.560Z,1273.00
2024-02-02T07:20:44.539Z,1283.00
2024-02-02T07:21:44.567Z,1298.00
2024-02-02T07:22:44.747Z,1325.00
2024-02-02T07:23:45.336Z,1339.00
2024-02-02T07:24:44.723Z,1356.00
2024-02-02T07:25:44.772Z,1390.00
2024-02-02T07:26:44.839Z,1403.00
2024-02-02T07:27:44.955Z,1414.00
2024-02-02T07:28:44.990Z,1425.00
2024-02-02T07:29:45.794Z,1431.00
2024-02-02T07:30:45.174Z,1445.00
2024-02-02T07:31:45.083Z,1448.00
2024-02-02T07:32:45.187Z,1472.00
2024-02-02T07:33:45.533Z,1500.00
2024-02-02T07:34:45.318Z,1514.00
2024-02-02T07:35:45.818Z,1542.00
2024-02-02T07:36:45.434Z,1427.00
2024-02-02T07:37:45.372Z,886.00
2024-02-02T07:38:45.473Z,790.00
2024-02-02T07:39:46.255Z,709.00
2024-02-02T07:40:45.892Z,695.00
2024-02-02T07:41:45.676Z,751.00
2024-02-02T07:42:48.589Z,826.00
2024-02-02T07:43:45.805Z,926.00
2024-02-02T07:44:45.821Z,961.00
2024-02-02T07:45:45.865Z,978.00
2024-02-02T07:46:46.010Z,1028.00
2024-02-02T07:47:46.040Z,1045.00
2024-02-02T07:48:46.074Z,1070.00
2024-02-02T07:49:46.034Z,1113.00
2024-02-02T07:50:46.324Z,1163.00
2024-02-02T07:51:46.017Z,1182.00
2024-02-02T07:52:46.030Z,1184.00
2024-02-02T07:53:46.038Z,1190.00
2024-02-02T07:54:46.156Z,1205.00
2024-02-02T07:55:46.049Z,1246.00
2024-02-02T07:56:46.081Z,1293.00
2024-02-02T07:57:46.075Z,1308.00
2024-02-02T07:58:46.127Z,1319.00
2024-02-02T07:59:46.071Z,1331.00
2024-02-02T08:00:46.834Z,1344.00
2024-02-02T08:01:46.760Z,1374.00
2024-02-02T08:02:46.119Z,1398.00
2024-02-02T08:03:46.133Z,1430.00
2024-02-02T08:04:46.070Z,1444.00
2024-02-02T08:05:46.048Z,1463.00
2024-02-02T08:06:46.078Z,1476.00
2024-02-02T08:07:45.970Z,1486.00
2024-02-02T08:08:45.999Z,1498.00
2024-02-02T08:09:46.059Z,1554.00
2024-02-02T08:10:45.933Z,1557.00
2024-02-02T08:11:45.949Z,1561.00
2024-02-02T08:12:45.888Z,1570.00
2024-02-02T08:13:45.923Z,1582.00
2024-02-02T08:14:45.922Z,1602.00
2024-02-02T08:15:45.931Z,1631.00
2024-02-02T08:16:45.898Z,1652.00
2024-02-02T08:17:45.875Z,1670.00
2024-02-02T08:18:45.911Z,1694.00
2024-02-02T08:19:45.883Z,1732.00
2024-02-02T08:20:45.816Z,1738.00
2024-02-02T08:21:45.814Z,1747.00
2024-02-02T08:22:45.820Z,1753.00
2024-02-02T08:23:45.763Z,1754.00
2024-02-02T08:24:45.690Z,1748.00
2024-02-02T08:25:45.748Z,1744.00
2024-02-02T08:26:45.751Z,1751.00
2024-02-02T08:27:45.716Z,1766.00
2024-02-02T08:28:51.575Z,1851.00
2024-02-02T08:29:46.633Z,1873.00
2024-02-02T08:30:45.910Z,1881.00
2024-02-02T08:31:45.642Z,1891.00
2024-02-02T08:32:45.770Z,1900.00
2024-02-02T08:33:45.757Z,1378.00
2024-02-02T08:34:45.649Z,932.00
2024-02-02T08:35:45.813Z,770.00
2024-02-02T08:36:45.677Z,737.00
2024-02-02T08:37:45.682Z,681.00
2024-02-02T08:38:45.773Z,705.00
2024-02-02T08:39:45.791Z,822.00
2024-02-02T08:40:46.637Z,881.00
2024-02-02T08:41:45.923Z,1048.00
2024-02-02T08:42:45.979Z,1090.00
2024-02-02T08:43:45.998Z,1177.00
2024-02-02T08:44:46.112Z,1204.00
2024-02-02T08:45:46.859Z,1893.00
2024-02-02T08:46:46.200Z,2215.00
2024-02-02T08:47:46.318Z,1350.00
2024-02-02T08:48:46.501Z,1308.00
2024-02-02T08:49:46.315Z,1315.00
2024-02-02T08:50:46.844Z,1331.00
2024-02-02T08:51:46.585Z,1347.00
2024-02-02T08:52:46.542Z,1385.00
2024-02-02T08:53:46.556Z,1396.00
2024-02-02T08:54:46.613Z,1409.00
2024-02-02T08:55:46.800Z,1428.00
2024-02-02T08:56:46.618Z,1452.00
2024-02-02T08:57:46.756Z,1460.00
2024-02-02T08:58:46.608Z,1475.00
2024-02-02T08:59:46.614Z,1500.00
2024-02-02T09:00:46.729Z,1539.00
2024-02-02T09:01:46.681Z,1550.00
2024-02-02T09:02:46.684Z,1567.00
2024-02-02T09:03:47.223Z,1575.00
2024-02-02T09:04:46.809Z,1588.00
2024-02-02T09:05:46.884Z,1600.00
2024-02-02T09:06:46.908Z,1619.00
2024-02-02T09:07:46.910Z,1641.00
2024-02-02T09:08:46.968Z,1664.00
2024-02-02T09:09:47.142Z,1683.00
2024-02-02T09:10:47.128Z,1704.00
2024-02-02T09:11:47.126Z,1722.00
2024-02-02T09:12:47.820Z,1744.00
2024-02-02T09:13:47.235Z,1766.00
2024-02-02T09:14:47.253Z,1781.00
2024-02-02T09:15:47.870Z,1796.00
2024-02-02T09:16:47.360Z,1813.00
2024-02-02T09:17:47.458Z,1849.00
2024-02-02T09:18:47.582Z,1875.00
2024-02-02T09:19:47.596Z,1888.00
2024-02-02T09:20:47.870Z,1911.00
2024-02-02T09:21:47.567Z,1931.00
2024-02-02T09:22:47.684Z,1939.00
2024-02-02T09:23:47.636Z,1941.00
2024-02-02T09:24:47.678Z,1954.00
2024-02-02T09:25:47.803Z,2033.00
2024-02-02T09:26:47.724Z,2031.00
2024-02-02T09:27:47.839Z,2043.00
2024-02-02T09:28:47.849Z,1497.00
2024-02-02T09:29:47.855Z,1028.00
2024-02-02T09:30:48.345Z,900.00
2024-02-02T09:31:47.900Z,835.00
2024-02-02T09:32:48.150Z,769.00
2024-02-02T09:33:48.331Z,720.00
2024-02-02T09:34:48.219Z,667.00
2024-02-02T09:35:48.307Z,671.00
2024-02-02T09:36:48.337Z,674.00
2024-02-02T09:37:48.431Z,657.00
2024-02-02T09:38:48.494Z,642.00
2024-02-02T09:39:48.592Z,632.00
2024-02-02T09:40:48.702Z,671.00
2024-02-02T09:41:48.740Z,648.00
2024-02-02T09:42:48.993Z,625.00
2024-02-02T09:43:49.021Z,613.00
2024-02-02T09:44:49.095Z,599.00
2024-02-02T09:45:49.266Z,588.00
2024-02-02T09:46:49.284Z,585.00
2024-02-02T09:47:49.531Z,581.00
2024-02-02T09:48:49.835Z,576.00
2024-02-02T09:49:49.821Z,578.00
2024-02-02T09:50:50.332Z,598.00
2024-02-02T09:51:49.966Z,735.00
2024-02-02T09:52:50.061Z,755.00
2024-02-02T09:53:50.204Z,766.00
2024-02-02T09:54:50.263Z,774.00
2024-02-02T09:55:50.850Z,876.00
2024-02-02T09:56:50.480Z,884.00
2024-02-02T09:57:50.559Z,962.00
2024-02-02T09:58:50.584Z,957.00
2024-02-02T09:59:50.623Z,1025.00
2024-02-02T10:00:50.831Z,1033.00
2024-02-02T10:01:50.833Z,1072.00
2024-02-02T10:02:50.905Z,1102.00
2024-02-02T10:03:51.092Z,1125.00
2024-02-02T10:04:51.052Z,1142.00
2024-02-02T10:05:51.070Z,1149.00
2024-02-02T10:06:51.109Z,1159.00
2024-02-02T10:07:51.093Z,1167.00
2024-02-02T10:08:51.088Z,1171.00
2024-02-02T10:09:51.162Z,1175.00
2024-02-02T10:10:51.208Z,1183.00
2024-02-02T10:11:51.301Z,1188.00
2024-02-02T10:12:51.309Z,1202.00
2024-02-02T10:13:51.384Z,1210.00
2024-02-02T10:14:51.433Z,1216.00
2024-02-02T10:15:51.533Z,1216.00
2024-02-02T10:16:51.545Z,1220.00
2024-02-02T10:17:51.721Z,1235.00
2024-02-02T10:18:52.029Z,1286.00
2024-02-02T10:19:51.734Z,1316.00
2024-02-02T10:20:51.754Z,1326.00
2024-02-02T10:21:51.753Z,1329.00
2024-02-02T10:22:51.871Z,1331.00
2024-02-02T10:23:51.808Z,1340.00
2024-02-02T10:24:51.902Z,1347.00
2024-02-02T10:25:51.875Z,1354.00
2024-02-02T10:26:52.341Z,1359.00
2024-02-02T10:27:54.174Z,1357.00
2024-02-02T10:28:51.895Z,1356.00
2024-02-02T10:29:51.895Z,1353.00
2024-02-02T10:30:52.399Z,1351.00
2024-02-02T10:31:51.930Z,1347.00
2024-02-02T10:32:51.959Z,1351.00
2024-02-02T10:33:51.939Z,1357.00
2024-02-02T10:34:51.986Z,1363.00
2024-02-02T10:35:51.886Z,1363.00
2024-02-02T10:36:52.826Z,937.00
2024-02-02T10:37:51.870Z,860.00
2024-02-02T10:38:52.036Z,750.00
2024-02-02T10:39:51.964Z,714.00
2024-02-02T10:40:51.914Z,673.00
2024-02-02T10:41:52.550Z,715.00
2024-02-02T10:42:52.848Z,767.00
2024-02-02T10:43:52.137Z,662.00
2024-02-02T10:44:52.113Z,631.00
2024-02-02T10:45:52.162Z,614.00
2024-02-02T10:46:52.858Z,613.00
2024-02-02T10:47:52.423Z,699.00
2024-02-02T10:48:52.588Z,735.00
2024-02-02T10:49:52.586Z,968.00
2024-02-02T10:50:52.598Z,895.00
2024-02-02T10:51:52.892Z,809.00
2024-02-02T10:52:52.634Z,818.00
2024-02-02T10:53:52.688Z,822.00
2024-02-02T10:54:52.754Z,739.00
2024-02-02T10:55:52.753Z,748.00
2024-02-02T10:56:52.807Z,758.00
2024-02-02T10:57:52.887Z,765.00
2024-02-02T10:58:52.904Z,757.00
2024-02-02T10:59:52.935Z,858.00
2024-02-02T11:00:53.053Z,894.00
2024-02-02T11:01:53.344Z,885.00
2024-02-02T11:02:53.040Z,896.00
2024-02-02T11:03:53.050Z,904.00
2024-02-02T11:04:53.110Z,1014.00
2024-02-02T11:05:53.054Z,1054.00
2024-02-02T11:06:53.143Z,1074.00
2024-02-02T11:07:53.847Z,1096.00
2024-02-02T11:08:53.140Z,1107.00
2024-02-02T11:09:53.103Z,1140.00
2024-02-02T11:10:53.861Z,1168.00
2024-02-02T11:11:53.109Z,1189.00
2024-02-02T11:12:53.163Z,1219.00
2024-02-02T11:13:53.207Z,1241.00
2024-02-02T11:14:53.787Z,1260.00
2024-02-02T11:15:53.351Z,1319.00
2024-02-02T11:16:53.357Z,1325.00
2024-02-02T11:17:53.411Z,1347.00
2024-02-02T11:18:53.551Z,1366.00
2024-02-02T11:19:53.572Z,1378.00
2024-02-02T11:20:53.492Z,1421.00
2024-02-02T11:21:53.912Z,1465.00
2024-02-02T11:22:53.428Z,1481.00
2024-02-02T11:23:53.532Z,1516.00
2024-02-02T11:24:53.657Z,1535.00
2024-02-02T11:25:54.400Z,1557.00
2024-02-02T11:26:53.516Z,1601.00
2024-02-02T11:27:55.376Z,1616.00
2024-02-02T11:28:53.649Z,1637.00
2024-02-02T11:29:53.513Z,1651.00
2024-02-02T11:30:53.590Z,1715.00
2024-02-02T11:31:53.886Z,1682.00
2024-02-02T11:32:54.457Z,1672.00
2024-02-02T11:33:54.477Z,1730.00
2024-02-02T11:34:53.678Z,1710.00
2024-02-02T11:35:53.738Z,1682.00
2024-02-02T11:36:54.351Z,1672.00
2024-02-02T11:37:53.806Z,1572.00
2024-02-02T11:38:53.748Z,1631.00
2024-02-02T11:39:53.720Z,1629.00
2024-02-02T11:40:53.732Z,1557.00
2024-02-02T11:41:53.724Z,1467.00
2024-02-02T11:42:53.738Z,1423.00
2024-02-02T11:43:53.704Z,1389.00
2024-02-02T11:44:53.777Z,1377.00
2024-02-02T11:45:53.769Z,1371.00
2024-02-02T11:46:53.893Z,1366.00
2024-02-02T11:47:53.869Z,1361.00
2024-02-02T11:48:53.852Z,1355.00
2024-02-02T11:49:53.816Z,1343.00
2024-02-02T11:50:53.801Z,1337.00
2024-02-02T11:51:53.793Z,1330.00
2024-02-02T11:52:53.806Z,1308.00
2024-02-02T11:53:53.804Z,1283.00
2024-02-02T11:54:53.817Z,1242.00
2024-02-02T11:55:53.822Z,1228.00
2024-02-02T11:56:53.824Z,1226.00
2024-02-02T11:57:53.838Z,1215.00
2024-02-02T11:58:53.851Z,1113.00
2024-02-02T11:59:54.833Z,1113.00
2024-02-02T12:00:54.042Z,1126.00
2024-02-02T12:01:54.396Z,1139.00
2024-02-02T12:02:53.978Z,1147.00
2024-02-02T12:03:54.028Z,1131.00
2024-02-02T12:04:54.065Z,1113.00
2024-02-02T12:05:54.108Z,1090.00
2024-02-02T12:06:54.474Z,1076.00
2024-02-02T12:07:54.250Z,989.00
2024-02-02T12:08:54.158Z,927.00
2024-02-02T12:09:54.236Z,981.00
2024-02-02T12:10:54.233Z,992.00
2024-02-02T12:11:54.379Z,931.00
2024-02-02T12:12:54.443Z,938.00
2024-02-02T12:13:54.443Z,940.00
2024-02-02T12:14:54.622Z,941.00
2024-02-02T12:15:54.567Z,930.00
2024-02-02T12:16:54.478Z,915.00
2024-02-02T12:17:54.533Z,906.00
2024-02-02T12:18:54.639Z,893.00
2024-02-02T12:19:54.786Z,843.00
2024-02-02T12:20:54.634Z,838.00
2024-02-02T12:21:54.695Z,858.00